sensor_id;sensor_type;location;lat;lon;timestamp;P1;durP1;ratioP1;P2;durP2;ratioP2
23113;SDS011;11726;50.122;8.832;2023-03-01T00:01:29;25.55;;;16.08;;
23113;SDS011;11726;50.122;8.832;2023-03-01T00:03:57;25.45;;;15.75;;
23113;SDS011;11726;50.122;8.832;2023-03-01T00:06:24;21.98;;;14.35;;
23113;SDS011;11726;50.122;8.832;2023-03-01T00:08:52;25.52;;;15.23;;
23113;SDS011;11726;50.122;8.832;2023-03-01T00:11:23;19.73;;;13.45;;
23113;SDS011;11726;50.122;8.832;2023-03-01T00:13:52;20.73;;;14.00;;
23113;SDS011;11726;50.122;8.832;2023-03-01T00:16:21;19.27;;;13.88;;
23113;SDS011;11726;50.122;8.832;2023-03-01T00:18:53;20.80;;;13.52;;
23113;SDS011;11726;50.122;8.832;2023-03-01T00:21:21;21.85;;;14.23;;
23113;SDS011;11726;50.122;8.832;2023-03-01T00:23:48;21.23;;;13.32;;
23113;SDS011;11726;50.122;8.832;2023-03-01T00:26:16;19.75;;;13.82;;
23113;SDS011;11726;50.122;8.832;2023-03-01T00:28:44;19.80;;;13.48;;
23113;SDS011;11726;50.122;8.832;2023-03-01T00:31:13;20.70;;;13.82;;
23113;SDS011;11726;50.122;8.832;2023-03-01T00:33:44;18.30;;;13.55;;
23113;SDS011;11726;50.122;8.832;2023-03-01T00:36:12;21.65;;;14.25;;
23113;SDS011;11726;50.122;8.832;2023-03-01T00:38:41;22.92;;;14.43;;
23113;SDS011;11726;50.122;8.832;2023-03-01T00:41:11;22.08;;;14.63;;
23113;SDS011;11726;50.122;8.832;2023-03-01T00:43:40;23.42;;;15.07;;
23113;SDS011;11726;50.122;8.832;2023-03-01T00:46:08;20.30;;;14.65;;
23113;SDS011;11726;50.122;8.832;2023-03-01T00:48:37;21.90;;;14.93;;
23113;SDS011;11726;50.122;8.832;2023-03-01T00:51:11;22.75;;;14.75;;
23113;SDS011;11726;50.122;8.832;2023-03-01T01:01:18;23.23;;;15.23;;
23113;SDS011;11726;50.122;8.832;2023-03-01T01:03:48;21.42;;;14.30;;
23113;SDS011;11726;50.122;8.832;2023-03-01T01:08:54;20.48;;;14.77;;
23113;SDS011;11726;50.122;8.832;2023-03-01T01:11:22;22.25;;;14.88;;
23113;SDS011;11726;50.122;8.832;2023-03-01T01:13:49;22.65;;;14.80;;
23113;SDS011;11726;50.122;8.832;2023-03-01T01:16:17;22.38;;;14.68;;
23113;SDS011;11726;50.122;8.832;2023-03-01T01:18:45;24.17;;;15.18;;
23113;SDS011;11726;50.122;8.832;2023-03-01T01:21:13;20.67;;;14.75;;
23113;SDS011;11726;50.122;8.832;2023-03-01T01:23:41;21.67;;;14.43;;
23113;SDS011;11726;50.122;8.832;2023-03-01T01:26:10;24.85;;;14.93;;
23113;SDS011;11726;50.122;8.832;2023-03-01T01:28:39;22.33;;;15.30;;
23113;SDS011;11726;50.122;8.832;2023-03-01T01:31:06;22.25;;;15.30;;
23113;SDS011;11726;50.122;8.832;2023-03-01T01:33:33;22.77;;;15.30;;
23113;SDS011;11726;50.122;8.832;2023-03-01T01:36:00;19.45;;;13.68;;
23113;SDS011;11726;50.122;8.832;2023-03-01T01:38:27;21.63;;;15.20;;
23113;SDS011;11726;50.122;8.832;2023-03-01T01:40:53;21.63;;;14.45;;
23113;SDS011;11726;50.122;8.832;2023-03-01T01:43:25;22.45;;;14.88;;
23113;SDS011;11726;50.122;8.832;2023-03-01T01:46:04;21.25;;;14.95;;
23113;SDS011;11726;50.122;8.832;2023-03-01T01:48:46;22.30;;;15.35;;
23113;SDS011;11726;50.122;8.832;2023-03-01T01:51:19;23.98;;;15.68;;
23113;SDS011;11726;50.122;8.832;2023-03-01T01:53:50;24.67;;;15.50;;
23113;SDS011;11726;50.122;8.832;2023-03-01T01:56:20;24.27;;;15.13;;
23113;SDS011;11726;50.122;8.832;2023-03-01T01:58:49;21.20;;;14.52;;
23113;SDS011;11726;50.122;8.832;2023-03-01T02:01:16;25.83;;;15.68;;
23113;SDS011;11726;50.122;8.832;2023-03-01T02:03:43;21.52;;;15.00;;
23113;SDS011;11726;50.122;8.832;2023-03-01T02:06:15;22.40;;;14.95;;
23113;SDS011;11726;50.122;8.832;2023-03-01T02:11:15;21.35;;;14.80;;
23113;SDS011;11726;50.122;8.832;2023-03-01T02:13:44;21.42;;;14.85;;
23113;SDS011;11726;50.122;8.832;2023-03-01T02:16:13;21.67;;;14.43;;
23113;SDS011;11726;50.122;8.832;2023-03-01T02:18:41;23.45;;;15.05;;
23113;SDS011;11726;50.122;8.832;2023-03-01T02:27:11;22.05;;;14.73;;
23113;SDS011;11726;50.122;8.832;2023-03-01T02:29:39;21.92;;;15.00;;
23113;SDS011;11726;50.122;8.832;2023-03-01T02:32:05;22.60;;;15.32;;
23113;SDS011;11726;50.122;8.832;2023-03-01T02:34:32;24.40;;;15.50;;
23113;SDS011;11726;50.122;8.832;2023-03-01T02:37:04;24.00;;;15.30;;
23113;SDS011;11726;50.122;8.832;2023-03-01T02:39:39;24.80;;;15.20;;
23113;SDS011;11726;50.122;8.832;2023-03-01T02:42:13;21.00;;;14.23;;
23113;SDS011;11726;50.122;8.832;2023-03-01T02:44:42;22.43;;;14.90;;
23113;SDS011;11726;50.122;8.832;2023-03-01T02:47:09;21.35;;;14.77;;
23113;SDS011;11726;50.122;8.832;2023-03-01T02:49:36;26.77;;;16.55;;
23113;SDS011;11726;50.122;8.832;2023-03-01T02:54:56;21.63;;;15.55;;
23113;SDS011;11726;50.122;8.832;2023-03-01T02:57:28;20.25;;;14.27;;
23113;SDS011;11726;50.122;8.832;2023-03-01T02:59:57;22.95;;;14.60;;
23113;SDS011;11726;50.122;8.832;2023-03-01T03:02:33;22.85;;;15.32;;
23113;SDS011;11726;50.122;8.832;2023-03-01T03:05:05;28.08;;;15.45;;
23113;SDS011;11726;50.122;8.832;2023-03-01T03:07:40;23.15;;;15.48;;
23113;SDS011;11726;50.122;8.832;2023-03-01T03:10:09;23.20;;;15.63;;
23113;SDS011;11726;50.122;8.832;2023-03-01T03:12:38;23.95;;;16.17;;
23113;SDS011;11726;50.122;8.832;2023-03-01T03:15:06;25.00;;;15.57;;
23113;SDS011;11726;50.122;8.832;2023-03-01T03:17:35;22.02;;;16.00;;
23113;SDS011;11726;50.122;8.832;2023-03-01T03:20:03;21.63;;;15.15;;
23113;SDS011;11726;50.122;8.832;2023-03-01T03:22:31;24.40;;;15.85;;
23113;SDS011;11726;50.122;8.832;2023-03-01T03:24:59;24.25;;;16.13;;
23113;SDS011;11726;50.122;8.832;2023-03-01T03:27:28;24.98;;;16.50;;
23113;SDS011;11726;50.122;8.832;2023-03-01T03:29:55;24.80;;;16.67;;
23113;SDS011;11726;50.122;8.832;2023-03-01T03:32:21;23.83;;;15.93;;
23113;SDS011;11726;50.122;8.832;2023-03-01T03:34:48;23.98;;;16.23;;
23113;SDS011;11726;50.122;8.832;2023-03-01T03:37:15;24.90;;;16.35;;
23113;SDS011;11726;50.122;8.832;2023-03-01T03:40:08;27.02;;;16.83;;
23113;SDS011;11726;50.122;8.832;2023-03-01T03:42:41;25.42;;;16.75;;
23113;SDS011;11726;50.122;8.832;2023-03-01T03:45:07;26.08;;;16.55;;
23113;SDS011;11726;50.122;8.832;2023-03-01T03:47:34;23.77;;;15.95;;
23113;SDS011;11726;50.122;8.832;2023-03-01T03:50:01;25.73;;;16.02;;
23113;SDS011;11726;50.122;8.832;2023-03-01T03:52:27;27.15;;;16.70;;
23113;SDS011;11726;50.122;8.832;2023-03-01T03:54:54;23.98;;;16.63;;
23113;SDS011;11726;50.122;8.832;2023-03-01T03:57:21;24.50;;;16.38;;
23113;SDS011;11726;50.122;8.832;2023-03-01T03:59:47;23.83;;;16.65;;
23113;SDS011;11726;50.122;8.832;2023-03-01T04:02:14;25.27;;;16.23;;
23113;SDS011;11726;50.122;8.832;2023-03-01T04:04:48;25.55;;;17.02;;
23113;SDS011;11726;50.122;8.832;2023-03-01T04:07:17;24.88;;;16.58;;
23113;SDS011;11726;50.122;8.832;2023-03-01T04:09:44;26.00;;;16.48;;
23113;SDS011;11726;50.122;8.832;2023-03-01T04:12:10;23.67;;;16.33;;
23113;SDS011;11726;50.122;8.832;2023-03-01T04:14:37;29.70;;;17.05;;
23113;SDS011;11726;50.122;8.832;2023-03-01T04:17:04;27.10;;;16.70;;
23113;SDS011;11726;50.122;8.832;2023-03-01T04:19:31;26.38;;;17.17;;
23113;SDS011;11726;50.122;8.832;2023-03-01T04:22:02;26.08;;;18.05;;
23113;SDS011;11726;50.122;8.832;2023-03-01T04:24:35;25.70;;;17.23;;
23113;SDS011;11726;50.122;8.832;2023-03-01T04:27:02;28.45;;;17.17;;
23113;SDS011;11726;50.122;8.832;2023-03-01T04:29:28;26.25;;;17.17;;
23113;SDS011;11726;50.122;8.832;2023-03-01T04:31:55;29.17;;;18.42;;
23113;SDS011;11726;50.122;8.832;2023-03-01T04:34:22;25.98;;;17.13;;
23113;SDS011;11726;50.122;8.832;2023-03-01T04:36:48;27.00;;;17.38;;
23113;SDS011;11726;50.122;8.832;2023-03-01T04:39:16;26.73;;;18.05;;
23113;SDS011;11726;50.122;8.832;2023-03-01T04:41:43;26.65;;;17.50;;
23113;SDS011;11726;50.122;8.832;2023-03-01T04:44:09;25.63;;;17.50;;
23113;SDS011;11726;50.122;8.832;2023-03-01T04:46:37;28.60;;;18.25;;
23113;SDS011;11726;50.122;8.832;2023-03-01T04:49:03;27.95;;;16.88;;
23113;SDS011;11726;50.122;8.832;2023-03-01T04:51:31;24.35;;;16.42;;
23113;SDS011;11726;50.122;8.832;2023-03-01T04:53:58;27.50;;;18.17;;
23113;SDS011;11726;50.122;8.832;2023-03-01T04:56:26;26.95;;;17.63;;
23113;SDS011;11726;50.122;8.832;2023-03-01T04:58:53;23.98;;;16.33;;
23113;SDS011;11726;50.122;8.832;2023-03-01T05:01:20;26.13;;;16.75;;
23113;SDS011;11726;50.122;8.832;2023-03-01T05:03:47;26.05;;;17.38;;
23113;SDS011;11726;50.122;8.832;2023-03-01T05:06:18;23.55;;;16.27;;
23113;SDS011;11726;50.122;8.832;2023-03-01T05:08:45;26.77;;;17.75;;
23113;SDS011;11726;50.122;8.832;2023-03-01T05:11:12;27.05;;;17.65;;
23113;SDS011;11726;50.122;8.832;2023-03-01T05:13:39;25.30;;;17.27;;
23113;SDS011;11726;50.122;8.832;2023-03-01T05:16:06;25.45;;;16.77;;
23113;SDS011;11726;50.122;8.832;2023-03-01T05:18:37;27.40;;;16.65;;
23113;SDS011;11726;50.122;8.832;2023-03-01T05:21:09;23.58;;;16.40;;
23113;SDS011;11726;50.122;8.832;2023-03-01T05:23:38;24.45;;;16.25;;
23113;SDS011;11726;50.122;8.832;2023-03-01T05:26:05;26.58;;;16.80;;
23113;SDS011;11726;50.122;8.832;2023-03-01T05:28:36;26.38;;;17.45;;
23113;SDS011;11726;50.122;8.832;2023-03-01T05:31:03;25.30;;;16.70;;
23113;SDS011;11726;50.122;8.832;2023-03-01T05:33:40;25.35;;;17.45;;
23113;SDS011;11726;50.122;8.832;2023-03-01T05:36:07;24.45;;;16.92;;
23113;SDS011;11726;50.122;8.832;2023-03-01T05:38:35;25.38;;;16.15;;
23113;SDS011;11726;50.122;8.832;2023-03-01T05:41:02;27.05;;;16.90;;
23113;SDS011;11726;50.122;8.832;2023-03-01T05:43:32;25.67;;;17.13;;
23113;SDS011;11726;50.122;8.832;2023-03-01T05:46:01;25.65;;;17.02;;
23113;SDS011;11726;50.122;8.832;2023-03-01T05:48:28;27.17;;;17.42;;
23113;SDS011;11726;50.122;8.832;2023-03-01T05:50:54;27.98;;;17.48;;
23113;SDS011;11726;50.122;8.832;2023-03-01T05:53:26;25.50;;;16.55;;
23113;SDS011;11726;50.122;8.832;2023-03-01T05:55:52;22.67;;;15.43;;
23113;SDS011;11726;50.122;8.832;2023-03-01T05:58:19;27.33;;;17.83;;
23113;SDS011;11726;50.122;8.832;2023-03-01T06:00:47;24.48;;;16.45;;
23113;SDS011;11726;50.122;8.832;2023-03-01T06:03:15;23.60;;;16.17;;
23113;SDS011;11726;50.122;8.832;2023-03-01T06:05:43;24.58;;;16.85;;
23113;SDS011;11726;50.122;8.832;2023-03-01T06:08:11;24.85;;;16.30;;
23113;SDS011;11726;50.122;8.832;2023-03-01T06:10:38;24.00;;;16.90;;
23113;SDS011;11726;50.122;8.832;2023-03-01T06:13:05;25.23;;;16.42;;
23113;SDS011;11726;50.122;8.832;2023-03-01T06:15:32;24.67;;;16.73;;
23113;SDS011;11726;50.122;8.832;2023-03-01T06:17:58;27.40;;;17.80;;
23113;SDS011;11726;50.122;8.832;2023-03-01T06:20:26;26.63;;;17.90;;
23113;SDS011;11726;50.122;8.832;2023-03-01T06:22:54;23.70;;;17.02;;
23113;SDS011;11726;50.122;8.832;2023-03-01T06:25:23;27.13;;;16.83;;
23113;SDS011;11726;50.122;8.832;2023-03-01T06:27:50;26.70;;;17.30;;
23113;SDS011;11726;50.122;8.832;2023-03-01T06:30:19;27.02;;;17.38;;
23113;SDS011;11726;50.122;8.832;2023-03-01T06:32:47;27.92;;;16.88;;
23113;SDS011;11726;50.122;8.832;2023-03-01T06:35:14;24.95;;;17.00;;
23113;SDS011;11726;50.122;8.832;2023-03-01T06:37:46;26.55;;;17.73;;
23113;SDS011;11726;50.122;8.832;2023-03-01T06:40:14;25.58;;;17.50;;
23113;SDS011;11726;50.122;8.832;2023-03-01T06:42:42;28.00;;;17.65;;
23113;SDS011;11726;50.122;8.832;2023-03-01T06:45:10;30.15;;;17.55;;
23113;SDS011;11726;50.122;8.832;2023-03-01T06:47:37;26.45;;;17.08;;
23113;SDS011;11726;50.122;8.832;2023-03-01T06:50:04;25.73;;;17.85;;
23113;SDS011;11726;50.122;8.832;2023-03-01T06:52:31;27.48;;;16.95;;
23113;SDS011;11726;50.122;8.832;2023-03-01T06:54:57;24.23;;;17.48;;
23113;SDS011;11726;50.122;8.832;2023-03-01T06:57:24;26.20;;;16.52;;
23113;SDS011;11726;50.122;8.832;2023-03-01T06:59:51;26.30;;;17.20;;
23113;SDS011;11726;50.122;8.832;2023-03-01T07:02:17;27.35;;;17.25;;
23113;SDS011;11726;50.122;8.832;2023-03-01T07:04:44;26.70;;;16.75;;
23113;SDS011;11726;50.122;8.832;2023-03-01T07:07:11;29.75;;;17.45;;
23113;SDS011;11726;50.122;8.832;2023-03-01T07:09:38;26.58;;;17.60;;
23113;SDS011;11726;50.122;8.832;2023-03-01T07:12:04;26.77;;;17.83;;
23113;SDS011;11726;50.122;8.832;2023-03-01T07:14:31;23.92;;;16.38;;
23113;SDS011;11726;50.122;8.832;2023-03-01T07:16:58;27.77;;;17.10;;
23113;SDS011;11726;50.122;8.832;2023-03-01T07:19:24;27.40;;;18.58;;
23113;SDS011;11726;50.122;8.832;2023-03-01T07:21:51;27.23;;;16.90;;
23113;SDS011;11726;50.122;8.832;2023-03-01T07:24:18;28.00;;;17.40;;
23113;SDS011;11726;50.122;8.832;2023-03-01T07:26:47;23.50;;;15.88;;
23113;SDS011;11726;50.122;8.832;2023-03-01T07:29:16;26.00;;;16.95;;
23113;SDS011;11726;50.122;8.832;2023-03-01T07:31:43;27.58;;;17.83;;
23113;SDS011;11726;50.122;8.832;2023-03-01T07:34:09;28.48;;;17.52;;
23113;SDS011;11726;50.122;8.832;2023-03-01T07:36:37;29.48;;;18.63;;
23113;SDS011;11726;50.122;8.832;2023-03-01T07:39:05;26.65;;;17.17;;
23113;SDS011;11726;50.122;8.832;2023-03-01T07:41:32;28.60;;;17.58;;
23113;SDS011;11726;50.122;8.832;2023-03-01T07:43:58;26.27;;;17.10;;
23113;SDS011;11726;50.122;8.832;2023-03-01T07:46:25;25.95;;;17.45;;
23113;SDS011;11726;50.122;8.832;2023-03-01T07:48:52;27.77;;;17.67;;
23113;SDS011;11726;50.122;8.832;2023-03-01T07:51:18;26.05;;;16.77;;
23113;SDS011;11726;50.122;8.832;2023-03-01T07:53:47;26.77;;;17.73;;
23113;SDS011;11726;50.122;8.832;2023-03-01T07:56:14;28.95;;;17.13;;
23113;SDS011;11726;50.122;8.832;2023-03-01T07:58:44;27.88;;;17.52;;
23113;SDS011;11726;50.122;8.832;2023-03-01T08:01:15;27.63;;;17.02;;
23113;SDS011;11726;50.122;8.832;2023-03-01T08:03:43;27.55;;;17.98;;
23113;SDS011;11726;50.122;8.832;2023-03-01T08:06:11;28.45;;;17.52;;
23113;SDS011;11726;50.122;8.832;2023-03-01T08:08:39;26.17;;;17.25;;
23113;SDS011;11726;50.122;8.832;2023-03-01T08:11:06;27.85;;;16.77;;
23113;SDS011;11726;50.122;8.832;2023-03-01T08:13:35;26.02;;;16.88;;
23113;SDS011;11726;50.122;8.832;2023-03-01T08:16:06;26.83;;;17.88;;
23113;SDS011;11726;50.122;8.832;2023-03-01T08:18:38;28.58;;;16.38;;
23113;SDS011;11726;50.122;8.832;2023-03-01T08:21:12;26.98;;;18.05;;
23113;SDS011;11726;50.122;8.832;2023-03-01T08:23:41;26.70;;;17.27;;
23113;SDS011;11726;50.122;8.832;2023-03-01T08:26:09;30.40;;;17.77;;
23113;SDS011;11726;50.122;8.832;2023-03-01T08:28:38;25.70;;;17.52;;
23113;SDS011;11726;50.122;8.832;2023-03-01T08:31:21;26.88;;;18.02;;
23113;SDS011;11726;50.122;8.832;2023-03-01T08:33:52;27.92;;;18.20;;
23113;SDS011;11726;50.122;8.832;2023-03-01T08:36:23;26.83;;;17.17;;
23113;SDS011;11726;50.122;8.832;2023-03-01T08:38:51;26.98;;;18.63;;
23113;SDS011;11726;50.122;8.832;2023-03-01T08:41:18;25.02;;;17.15;;
23113;SDS011;11726;50.122;8.832;2023-03-01T08:43:45;22.83;;;16.35;;
23113;SDS011;11726;50.122;8.832;2023-03-01T08:46:12;26.77;;;17.60;;
23113;SDS011;11726;50.122;8.832;2023-03-01T08:48:39;27.05;;;17.48;;
23113;SDS011;11726;50.122;8.832;2023-03-01T08:53:40;25.30;;;16.83;;
23113;SDS011;11726;50.122;8.832;2023-03-01T08:56:07;25.73;;;16.83;;
23113;SDS011;11726;50.122;8.832;2023-03-01T08:58:34;27.30;;;17.48;;
23113;SDS011;11726;50.122;8.832;2023-03-01T09:01:06;23.88;;;17.00;;
23113;SDS011;11726;50.122;8.832;2023-03-01T09:03:34;27.70;;;17.63;;
23113;SDS011;11726;50.122;8.832;2023-03-01T09:06:02;28.42;;;17.70;;
23113;SDS011;11726;50.122;8.832;2023-03-01T09:08:30;26.58;;;18.10;;
23113;SDS011;11726;50.122;8.832;2023-03-01T09:11:01;27.63;;;17.48;;
23113;SDS011;11726;50.122;8.832;2023-03-01T09:13:29;32.47;;;19.40;;
23113;SDS011;11726;50.122;8.832;2023-03-01T09:15:59;27.67;;;18.30;;
23113;SDS011;11726;50.122;8.832;2023-03-01T09:18:27;27.30;;;18.02;;
23113;SDS011;11726;50.122;8.832;2023-03-01T09:21:02;27.88;;;18.45;;
23113;SDS011;11726;50.122;8.832;2023-03-01T09:23:34;27.70;;;17.60;;
23113;SDS011;11726;50.122;8.832;2023-03-01T09:26:02;25.25;;;17.48;;
23113;SDS011;11726;50.122;8.832;2023-03-01T09:28:29;25.75;;;17.30;;
23113;SDS011;11726;50.122;8.832;2023-03-01T09:30:59;27.50;;;17.85;;
23113;SDS011;11726;50.122;8.832;2023-03-01T09:33:27;25.42;;;17.00;;
23113;SDS011;11726;50.122;8.832;2023-03-01T09:36:01;26.30;;;17.60;;
23113;SDS011;11726;50.122;8.832;2023-03-01T09:40:56;25.35;;;16.73;;
23113;SDS011;11726;50.122;8.832;2023-03-01T09:43:29;23.75;;;16.25;;
23113;SDS011;11726;50.122;8.832;2023-03-01T09:46:08;25.30;;;17.23;;
23113;SDS011;11726;50.122;8.832;2023-03-01T09:51:32;22.58;;;16.48;;
23113;SDS011;11726;50.122;8.832;2023-03-01T09:54:01;22.10;;;15.70;;
23113;SDS011;11726;50.122;8.832;2023-03-01T09:56:32;22.65;;;16.02;;
23113;SDS011;11726;50.122;8.832;2023-03-01T10:04:49;23.00;;;16.45;;
23113;SDS011;11726;50.122;8.832;2023-03-01T10:10:23;23.83;;;16.50;;
23113;SDS011;11726;50.122;8.832;2023-03-01T10:12:57;22.80;;;16.08;;
23113;SDS011;11726;50.122;8.832;2023-03-01T10:15:33;22.65;;;16.20;;
23113;SDS011;11726;50.122;8.832;2023-03-01T10:18:06;23.83;;;15.13;;
23113;SDS011;11726;50.122;8.832;2023-03-01T10:23:30;22.95;;;15.05;;
23113;SDS011;11726;50.122;8.832;2023-03-01T10:29:12;18.90;;;13.48;;
23113;SDS011;11726;50.122;8.832;2023-03-01T10:31:46;20.17;;;14.48;;
23113;SDS011;11726;50.122;8.832;2023-03-01T10:36:45;18.77;;;13.82;;
23113;SDS011;11726;50.122;8.832;2023-03-01T10:39:16;18.67;;;13.77;;
23113;SDS011;11726;50.122;8.832;2023-03-01T10:41:55;19.85;;;14.48;;
23113;SDS011;11726;50.122;8.832;2023-03-01T10:44:39;19.92;;;14.02;;
23113;SDS011;11726;50.122;8.832;2023-03-01T10:50:18;20.88;;;13.35;;
23113;SDS011;11726;50.122;8.832;2023-03-01T10:53:00;18.75;;;12.98;;
23113;SDS011;11726;50.122;8.832;2023-03-01T10:55:33;19.00;;;14.18;;
23113;SDS011;11726;50.122;8.832;2023-03-01T10:58:06;17.88;;;12.85;;
23113;SDS011;11726;50.122;8.832;2023-03-01T11:00:33;20.25;;;13.15;;
23113;SDS011;11726;50.122;8.832;2023-03-01T11:03:12;19.60;;;13.32;;
23113;SDS011;11726;50.122;8.832;2023-03-01T11:05:50;19.55;;;13.30;;
23113;SDS011;11726;50.122;8.832;2023-03-01T11:08:32;20.58;;;14.05;;
23113;SDS011;11726;50.122;8.832;2023-03-01T11:11:04;17.20;;;12.63;;
23113;SDS011;11726;50.122;8.832;2023-03-01T11:13:36;19.38;;;12.20;;
23113;SDS011;11726;50.122;8.832;2023-03-01T11:16:15;15.18;;;11.98;;
23113;SDS011;11726;50.122;8.832;2023-03-01T11:18:57;18.73;;;13.15;;
23113;SDS011;11726;50.122;8.832;2023-03-01T11:21:31;19.35;;;12.85;;
23113;SDS011;11726;50.122;8.832;2023-03-01T11:23:59;17.90;;;12.68;;
23113;SDS011;11726;50.122;8.832;2023-03-01T11:26:29;17.60;;;12.48;;
23113;SDS011;11726;50.122;8.832;2023-03-01T11:29:01;16.08;;;11.85;;
23113;SDS011;11726;50.122;8.832;2023-03-01T11:31:33;16.77;;;12.10;;
23113;SDS011;11726;50.122;8.832;2023-03-01T11:34:43;16.38;;;12.48;;
23113;SDS011;11726;50.122;8.832;2023-03-01T11:36:59;14.07;;;11.45;;
23113;SDS011;11726;50.122;8.832;2023-03-01T11:42:37;18.75;;;12.35;;
23113;SDS011;11726;50.122;8.832;2023-03-01T11:45:14;17.02;;;11.85;;
23113;SDS011;11726;50.122;8.832;2023-03-01T11:47:50;14.63;;;11.50;;
23113;SDS011;11726;50.122;8.832;2023-03-01T11:50:42;17.03;;;11.80;;
23113;SDS011;11726;50.122;8.832;2023-03-01T12:07:28;17.00;;;11.83;;
23113;SDS011;11726;50.122;8.832;2023-03-01T12:18:33;15.05;;;11.48;;
23113;SDS011;11726;50.122;8.832;2023-03-01T12:21:35;15.20;;;11.85;;
23113;SDS011;11726;50.122;8.832;2023-03-01T12:24:42;16.40;;;11.73;;
23113;SDS011;11726;50.122;8.832;2023-03-01T12:49:15;16.70;;;10.90;;
23113;SDS011;11726;50.122;8.832;2023-03-01T12:51:51;14.40;;;10.15;;
23113;SDS011;11726;50.122;8.832;2023-03-01T12:54:31;15.70;;;10.25;;
23113;SDS011;11726;50.122;8.832;2023-03-01T13:00:30;15.57;;;10.20;;
23113;SDS011;11726;50.122;8.832;2023-03-01T13:03:06;12.32;;;9.80;;
23113;SDS011;11726;50.122;8.832;2023-03-01T13:06:02;13.30;;;9.32;;
23113;SDS011;11726;50.122;8.832;2023-03-01T13:09:11;14.13;;;10.02;;
23113;SDS011;11726;50.122;8.832;2023-03-01T13:11:30;10.93;;;8.98;;
23113;SDS011;11726;50.122;8.832;2023-03-01T13:16:47;13.52;;;8.98;;
23113;SDS011;11726;50.122;8.832;2023-03-01T13:19:16;13.98;;;9.60;;
23113;SDS011;11726;50.122;8.832;2023-03-01T13:21:44;12.88;;;8.65;;
23113;SDS011;11726;50.122;8.832;2023-03-01T13:29:48;13.32;;;9.38;;
23113;SDS011;11726;50.122;8.832;2023-03-01T13:37:46;12.13;;;9.02;;
23113;SDS011;11726;50.122;8.832;2023-03-01T13:42:45;14.18;;;9.32;;
23113;SDS011;11726;50.122;8.832;2023-03-01T13:45:40;11.32;;;9.25;;
23113;SDS011;11726;50.122;8.832;2023-03-01T13:48:11;13.80;;;10.00;;
23113;SDS011;11726;50.122;8.832;2023-03-01T13:51:00;12.50;;;9.40;;
23113;SDS011;11726;50.122;8.832;2023-03-01T13:53:30;12.93;;;9.73;;
23113;SDS011;11726;50.122;8.832;2023-03-01T13:56:01;12.75;;;9.30;;
23113;SDS011;11726;50.122;8.832;2023-03-01T13:58:42;13.32;;;9.77;;
23113;SDS011;11726;50.122;8.832;2023-03-01T14:01:26;16.27;;;9.95;;
23113;SDS011;11726;50.122;8.832;2023-03-01T14:04:01;12.05;;;9.15;;
23113;SDS011;11726;50.122;8.832;2023-03-01T14:06:30;12.70;;;9.52;;
23113;SDS011;11726;50.122;8.832;2023-03-01T14:09:09;12.32;;;9.23;;
23113;SDS011;11726;50.122;8.832;2023-03-01T14:20:42;14.40;;;10.52;;
23113;SDS011;11726;50.122;8.832;2023-03-01T14:23:18;12.60;;;9.27;;
23113;SDS011;11726;50.122;8.832;2023-03-01T14:25:50;13.77;;;9.23;;
23113;SDS011;11726;50.122;8.832;2023-03-01T14:28:29;13.18;;;9.80;;
23113;SDS011;11726;50.122;8.832;2023-03-01T14:30:59;13.48;;;9.40;;
23113;SDS011;11726;50.122;8.832;2023-03-01T14:33:28;12.90;;;9.60;;
23113;SDS011;11726;50.122;8.832;2023-03-01T14:36:08;13.13;;;9.30;;
23113;SDS011;11726;50.122;8.832;2023-03-01T14:38:37;14.27;;;10.05;;
23113;SDS011;11726;50.122;8.832;2023-03-01T14:46:26;13.00;;;9.30;;
23113;SDS011;11726;50.122;8.832;2023-03-01T14:49:06;13.98;;;10.00;;
23113;SDS011;11726;50.122;8.832;2023-03-01T14:52:01;12.38;;;8.80;;
23113;SDS011;11726;50.122;8.832;2023-03-01T14:54:43;12.43;;;8.55;;
23113;SDS011;11726;50.122;8.832;2023-03-01T14:57:23;13.38;;;9.85;;
23113;SDS011;11726;50.122;8.832;2023-03-01T14:59:52;12.57;;;9.07;;
23113;SDS011;11726;50.122;8.832;2023-03-01T15:02:22;12.93;;;9.60;;
23113;SDS011;11726;50.122;8.832;2023-03-01T15:04:52;14.38;;;9.88;;
23113;SDS011;11726;50.122;8.832;2023-03-01T15:07:23;12.95;;;9.48;;
23113;SDS011;11726;50.122;8.832;2023-03-01T15:09:58;13.57;;;9.30;;
23113;SDS011;11726;50.122;8.832;2023-03-01T15:14:55;16.02;;;11.63;;
23113;SDS011;11726;50.122;8.832;2023-03-01T15:17:36;13.43;;;9.68;;
23113;SDS011;11726;50.122;8.832;2023-03-01T15:20:05;13.48;;;9.50;;
23113;SDS011;11726;50.122;8.832;2023-03-01T15:22:45;12.70;;;9.30;;
23113;SDS011;11726;50.122;8.832;2023-03-01T15:25:24;14.32;;;9.52;;
23113;SDS011;11726;50.122;8.832;2023-03-01T15:27:53;13.77;;;9.40;;
23113;SDS011;11726;50.122;8.832;2023-03-01T15:30:22;13.52;;;9.60;;
23113;SDS011;11726;50.122;8.832;2023-03-01T15:35:46;15.05;;;9.90;;
23113;SDS011;11726;50.122;8.832;2023-03-01T15:38:23;13.98;;;10.13;;
23113;SDS011;11726;50.122;8.832;2023-03-01T15:40:59;12.25;;;9.35;;
23113;SDS011;11726;50.122;8.832;2023-03-01T15:43:46;14.23;;;10.18;;
23113;SDS011;11726;50.122;8.832;2023-03-01T15:46:32;13.45;;;9.98;;
23113;SDS011;11726;50.122;8.832;2023-03-01T15:49:02;14.02;;;9.57;;
23113;SDS011;11726;50.122;8.832;2023-03-01T15:51:35;14.98;;;9.80;;
23113;SDS011;11726;50.122;8.832;2023-03-01T15:54:06;13.30;;;9.73;;
23113;SDS011;11726;50.122;8.832;2023-03-01T15:56:46;15.02;;;10.98;;
23113;SDS011;11726;50.122;8.832;2023-03-01T15:59:13;14.25;;;9.90;;
23113;SDS011;11726;50.122;8.832;2023-03-01T16:01:40;17.42;;;10.45;;
23113;SDS011;11726;50.122;8.832;2023-03-01T16:04:11;16.73;;;10.93;;
23113;SDS011;11726;50.122;8.832;2023-03-01T16:06:42;14.60;;;10.73;;
23113;SDS011;11726;50.122;8.832;2023-03-01T16:09:09;15.15;;;10.77;;
23113;SDS011;11726;50.122;8.832;2023-03-01T16:11:36;15.13;;;11.02;;
23113;SDS011;11726;50.122;8.832;2023-03-01T16:14:04;13.93;;;10.80;;
23113;SDS011;11726;50.122;8.832;2023-03-01T16:16:30;15.80;;;11.48;;
23113;SDS011;11726;50.122;8.832;2023-03-01T16:18:58;16.23;;;11.88;;
23113;SDS011;11726;50.122;8.832;2023-03-01T16:21:24;15.82;;;11.52;;
23113;SDS011;11726;50.122;8.832;2023-03-01T16:23:52;16.17;;;11.82;;
23113;SDS011;11726;50.122;8.832;2023-03-01T16:26:19;15.80;;;11.32;;
23113;SDS011;11726;50.122;8.832;2023-03-01T16:28:46;17.00;;;11.93;;
23113;SDS011;11726;50.122;8.832;2023-03-01T16:31:16;15.23;;;10.80;;
23113;SDS011;11726;50.122;8.832;2023-03-01T16:33:45;14.75;;;11.25;;
23113;SDS011;11726;50.122;8.832;2023-03-01T16:36:16;20.90;;;11.07;;
23113;SDS011;11726;50.122;8.832;2023-03-01T16:38:44;18.15;;;12.48;;
23113;SDS011;11726;50.122;8.832;2023-03-01T16:41:12;17.23;;;12.65;;
23113;SDS011;11726;50.122;8.832;2023-03-01T16:43:41;19.33;;;12.55;;
23113;SDS011;11726;50.122;8.832;2023-03-01T16:46:15;16.23;;;12.30;;
23113;SDS011;11726;50.122;8.832;2023-03-01T16:48:47;15.10;;;11.80;;
23113;SDS011;11726;50.122;8.832;2023-03-01T16:51:15;17.98;;;12.57;;
23113;SDS011;11726;50.122;8.832;2023-03-01T16:53:42;17.92;;;12.05;;
23113;SDS011;11726;50.122;8.832;2023-03-01T16:56:12;16.88;;;12.00;;
23113;SDS011;11726;50.122;8.832;2023-03-01T16:58:39;17.92;;;12.35;;
23113;SDS011;11726;50.122;8.832;2023-03-01T17:01:07;16.58;;;11.80;;